Time;durP1;ratioP1;P1;durP2;ratioP2;P2;SDS_P1;SDS_P2;PMS_P1;PMS_P2;Temp;Humidity;BMP_temperature;BMP_pressure;BME280_temperature;BME280_humidity;BME280_pressure;Samples;Min_cycle;Max_cycle;Signal;HPM_P1;HPM_P2
2022/01/21 00:35:37;;;;;;;4.73;0.90;;;-4.00;96.30;;;;;;5873751;23;20594;-78
2022/01/21 00:38:03;;;;;;;4.03;0.97;;;-4.00;96.30;;;;;;4902833;29;21114;-79
2022/01/21 00:40:30;;;;;;;5.70;0.93;;;-4.10;96.30;;;;;;4920099;29;20752;-79
2022/01/21 00:43:11;;;;;;;4.80;1.13;;;-4.00;96.30;;;;;;4918766;29;20590;-78
2022/01/21 00:45:37;;;;;;;2.70;1.00;;;-4.00;96.30;;;;;;4919978;29;20964;-78
2022/01/21 00:48:03;;;;;;;6.57;1.00;;;-4.20;96.30;;;;;;4920243;29;20418;-79
2022/01/21 00:50:29;;;;;;;18.50;1.40;;;-4.20;96.30;;;;;;4918758;29;20676;-79
2022/01/21 00:52:54;;;;;;;5.37;1.50;;;-4.30;96.30;;;;;;4918799;29;20427;-78
2022/01/21 00:55:20;;;;;;;8.73;1.67;;;-4.20;96.30;;;;;;4918397;29;20192;-79
2022/01/21 00:57:45;;;;;;;5.57;1.23;;;-4.40;96.30;;;;;;4919699;29;20244;-79
2022/01/21 05:01:53;;;;;;;1.40;1.00;;;-6.20;96.30;;;;;;5227529;23;20500;-77
2022/01/21 05:04:19;;;;;;;11.13;2.27;;;-6.20;96.30;;;;;;4909555;29;20416;-76
2022/01/21 05:06:47;;;;;;;7.60;1.10;;;-6.20;96.30;;;;;;4917603;29;20433;-76
2022/01/21 05:09:16;;;;;;;1.63;0.83;;;-6.10;96.30;;;;;;4917702;29;20405;-75
2022/01/21 05:11:42;;;;;;;9.17;1.47;;;-6.10;96.30;;;;;;4917087;29;20435;-74
2022/01/21 05:14:17;;;;;;;8.47;1.20;;;-6.10;96.30;;;;;;4918196;29;20416;-76
2022/01/21 05:16:46;;;;;;;3.87;1.23;;;-6.10;96.30;;;;;;4921392;29;20408;-77
2022/01/21 05:19:16;;;;;;;9.50;1.33;;;-6.20;96.30;;;;;;4904164;29;20424;-77
2022/01/21 05:21:44;;;;;;;4.20;1.10;;;-6.20;96.30;;;;;;4898655;29;20471;-76
2022/01/21 05:24:09;;;;;;;10.27;1.47;;;-6.20;96.30;;;;;;4899007;29;20424;-78
2022/01/21 05:26:38;;;;;;;1.90;0.77;;;-6.20;96.30;;;;;;4898339;29;20533;-77
2022/01/21 05:29:08;;;;;;;4.40;1.50;;;-6.20;96.30;;;;;;4881977;29;20181;-78
2022/01/21 06:05:07;;;;;;;1.90;1.13;;;-6.00;96.30;;;;;;4858746;29;20889;-75
2022/01/21 06:07:33;;;;;;;4.77;2.00;;;-6.00;96.30;;;;;;4860155;29;20423;-75
2022/01/21 06:09:59;;;;;;;4.93;1.40;;;-6.00;96.30;;;;;;4860483;29;20777;-75
2022/01/21 06:12:24;;;;;;;5.43;1.37;;;-6.00;96.30;;;;;;4861022;29;20429;-75
2022/01/21 06:14:51;;;;;;;12.03;1.77;;;-6.00;96.30;;;;;;4878500;29;20182;-75
2022/01/21 06:17:16;;;;;;;3.20;1.37;;;-6.00;96.30;;;;;;4862123;29;20654;-75
2022/01/21 06:19:43;;;;;;;3.40;1.10;;;-6.00;96.30;;;;;;4878812;29;20497;-75
2022/01/21 06:22:08;;;;;;;3.50;1.20;;;-6.10;96.30;;;;;;4877972;29;20213;-75
2022/01/21 06:24:34;;;;;;;6.20;1.60;;;-6.10;96.30;;;;;;4878259;29;20790;-79
2022/01/21 06:27:02;;;;;;;10.10;1.60;;;-6.00;96.30;;;;;;4861858;29;20174;-76
2022/01/21 06:29:28;;;;;;;5.70;1.70;;;-5.90;96.30;;;;;;4878719;29;20166;-76
2022/01/21 06:31:54;;;;;;;3.80;1.53;;;-6.00;96.30;;;;;;4861849;29;20449;-73
2022/01/21 06:34:20;;;;;;;6.33;1.30;;;-5.90;96.30;;;;;;4878420;29;20606;-73
2022/01/21 06:36:45;;;;;;;5.27;1.30;;;-5.90;96.30;;;;;;4878375;29;20196;-77
2022/01/21 06:39:11;;;;;;;10.40;1.87;;;-5.90;96.30;;;;;;4881196;29;20792;-76
2022/01/21 06:41:36;;;;;;;5.40;1.90;;;-5.90;96.30;;;;;;4878400;29;20221;-77
2022/01/21 06:44:03;;;;;;;5.00;1.37;;;-6.00;96.30;;;;;;4877024;29;20261;-76
2022/01/21 06:46:29;;;;;;;2.97;1.20;;;-6.00;96.30;;;;;;4862030;29;20233;-76
2022/01/21 06:48:54;;;;;;;8.43;1.80;;;-6.00;96.30;;;;;;4874307;29;20450;-78
2022/01/21 06:51:20;;;;;;;6.30;1.47;;;-6.00;96.30;;;;;;4861364;29;20414;-77
2022/01/21 06:53:45;;;;;;;4.57;1.77;;;-6.00;96.30;;;;;;4877428;29;20664;-77
2022/01/21 06:56:12;;;;;;;4.17;1.27;;;-6.00;96.30;;;;;;4860727;29;20233;-76
2022/01/21 06:58:38;;;;;;;6.00;1.50;;;-6.00;96.30;;;;;;4854468;29;20236;-78
2022/01/21 07:01:03;;;;;;;5.93;1.60;;;-6.10;96.30;;;;;;4861123;29;20566;-73
2022/01/21 07:03:29;;;;;;;5.07;1.73;;;-6.00;96.30;;;;;;4871632;29;20196;-74
2022/01/21 07:05:54;;;;;;;19.50;1.73;;;-6.00;96.30;;;;;;4894913;29;20181;-74
2022/01/21 07:08:20;;;;;;;5.90;1.70;;;-6.00;96.30;;;;;;4895218;29;20181;-75
2022/01/21 07:10:46;;;;;;;4.40;2.03;;;-6.00;96.30;;;;;;4878541;29;20233;-74
2022/01/21 07:13:11;;;;;;;4.87;1.30;;;-5.90;96.30;;;;;;4894208;29;20191;-73
2022/01/21 07:15:37;;;;;;;10.73;1.70;;;-5.80;96.30;;;;;;4896034;29;20609;-74
2022/01/21 07:18:03;;;;;;;12.43;2.13;;;-5.70;96.30;;;;;;4894350;29;20307;-76
2022/01/21 07:20:29;;;;;;;8.00;1.50;;;-5.70;96.30;;;;;;4896007;29;20553;-74
2022/01/21 07:22:54;;;;;;;1.37;1.10;;;-5.60;96.30;;;;;;4895407;29;20716;-76
2022/01/21 07:25:20;;;;;;;6.67;1.57;;;-5.60;96.30;;;;;;4893363;29;20528;-73
2022/01/21 07:27:46;;;;;;;4.73;1.40;;;-5.60;96.30;;;;;;4896441;29;20216;-74
2022/01/21 07:30:13;;;;;;;4.00;1.30;;;-5.60;96.30;;;;;;4893860;29;20170;-74
2022/01/21 07:32:40;;;;;;;8.03;1.53;;;-5.50;96.30;;;;;;4896250;29;20417;-74
2022/01/21 07:35:08;;;;;;;4.40;1.50;;;-5.40;96.30;;;;;;4898245;29;20481;-74
2022/01/21 07:37:34;;;;;;;6.20;1.37;;;-5.40;96.30;;;;;;4899079;29;20459;-74
2022/01/21 07:39:59;;;;;;;6.20;1.50;;;-5.30;96.30;;;;;;4883120;29;20460;-74
2022/01/21 07:42:25;;;;;;;5.43;1.87;;;-5.30;96.30;;;;;;4897090;29;20208;-74
2022/01/21 07:44:50;;;;;;;7.67;1.97;;;-5.30;96.30;;;;;;4900113;29;20248;-73
2022/01/21 07:47:16;;;;;;;11.20;2.03;;;-5.20;96.30;;;;;;4898335;29;20184;-74
2022/01/21 07:49:42;;;;;;;3.77;1.97;;;-5.20;96.30;;;;;;4898669;29;20220;-75
2022/01/21 07:52:08;;;;;;;17.70;3.20;;;-5.20;96.30;;;;;;4899508;29;20197;-76
2022/01/21 07:54:34;;;;;;;7.80;2.10;;;-5.20;96.30;;;;;;4897424;29;20436;-74
2022/01/21 07:57:02;;;;;;;8.27;1.67;;;-5.20;96.30;;;;;;4898816;29;20796;-76
2022/01/21 07:59:27;;;;;;;8.60;2.07;;;-5.00;96.30;;;;;;4896618;29;20444;-75
2022/01/21 08:01:53;;;;;;;6.60;1.73;;;-4.90;96.30;;;;;;4899537;29;20484;-75
2022/01/21 08:04:18;;;;;;;4.60;2.20;;;-4.80;96.30;;;;;;4889242;29;20730;-75
2022/01/21 08:06:44;;;;;;;4.97;1.50;;;-4.90;96.30;;;;;;4885170;29;20181;-76
2022/01/21 08:09:09;;;;;;;5.37;1.60;;;-4.70;96.30;;;;;;4899940;29;20638;-74
2022/01/21 08:11:35;;;;;;;10.33;2.07;;;-4.60;96.30;;;;;;4866011;29;20295;-75
2022/01/21 08:14:00;;;;;;;17.23;2.30;;;-4.50;96.30;;;;;;4881546;29;20185;-77
2022/01/21 08:16:26;;;;;;;4.17;1.60;;;-4.40;96.30;;;;;;4882036;29;20241;-75
2022/01/21 08:18:54;;;;;;;8.07;2.77;;;-4.30;96.30;;;;;;4894673;29;20185;-74
2022/01/21 08:21:19;;;;;;;12.20;2.53;;;-4.10;96.30;;;;;;4886963;29;20205;-75
2022/01/21 08:23:48;;;;;;;6.60;1.83;;;-4.00;96.30;;;;;;4876639;29;20433;-75
2022/01/21 08:26:14;;;;;;;8.80;2.07;;;-3.80;96.30;;;;;;4881492;29;20264;-75
2022/01/21 08:28:40;;;;;;;7.07;1.90;;;-3.60;96.30;;;;;;4884733;29;20559;-75
2022/01/21 08:31:05;;;;;;;10.60;1.87;;;-3.40;96.30;;;;;;4887880;29;21001;-77
2022/01/21 08:33:31;;;;;;;11.53;1.90;;;-3.50;96.30;;;;;;4880881;29;20684;-76
2022/01/21 08:35:56;;;;;;;11.47;2.10;;;-3.50;96.30;;;;;;4890189;29;20566;-77
2022/01/21 08:38:22;;;;;;;8.10;2.03;;;-3.50;96.30;;;;;;4892151;29;20296;-77
2022/01/21 08:40:49;;;;;;;7.20;1.87;;;-3.50;96.30;;;;;;4887975;29;21021;-76
2022/01/21 08:43:14;;;;;;;8.47;2.13;;;-3.40;96.30;;;;;;4880379;29;20178;-78
2022/01/21 08:45:40;;;;;;;5.27;2.07;;;-3.40;96.30;;;;;;4880618;29;20520;-77
2022/01/21 08:48:05;;;;;;;10.23;1.63;;;-3.50;96.30;;;;;;4879015;29;20672;-76
2022/01/21 08:50:31;;;;;;;9.23;2.10;;;-3.50;96.30;;;;;;4894040;29;20279;-76
2022/01/21 08:53:08;;;;;;;10.60;2.47;;;-3.30;96.30;;;;;;4887941;29;20216;-77
2022/01/21 08:55:34;;;;;;;11.07;1.67;;;-3.20;96.30;;;;;;4885213;29;20196;-76
2022/01/21 08:58:00;;;;;;;15.80;2.37;;;-3.00;96.30;;;;;;4881781;29;20448;-73
2022/01/21 09:00:26;;;;;;;7.80;1.77;;;-2.80;96.30;;;;;;4890503;29;20462;-72
2022/01/21 09:02:51;;;;;;;18.60;2.60;;;-2.70;96.30;;;;;;4880101;29;20984;-72
2022/01/21 09:05:17;;;;;;;14.80;2.73;;;-2.70;96.30;;;;;;4880062;29;20626;-73
2022/01/21 09:07:43;;;;;;;12.70;2.20;;;-2.50;96.30;;;;;;4885548;29;20229;-73
2022/01/21 09:10:10;;;;;;;7.03;2.10;;;-2.60;96.30;;;;;;4881822;29;20511;-73
2022/01/21 09:12:36;;;;;;;13.43;2.17;;;-2.50;96.30;;;;;;4892576;29;20178;-78
2022/01/21 09:15:03;;;;;;;9.03;2.27;;;-2.50;96.30;;;;;;4891729;29;20434;-78
2022/01/21 09:17:28;;;;;;;9.63;2.37;;;-2.50;96.30;;;;;;4877085;29;20240;-77
2022/01/21 09:19:54;;;;;;;8.97;1.97;;;-2.40;96.30;;;;;;4875747;29;21059;-76
2022/01/21 09:22:19;;;;;;;5.40;1.37;;;-2.30;96.30;;;;;;4865781;29;20684;-77
2022/01/21 09:24:45;;;;;;;8.23;2.57;;;-2.20;96.30;;;;;;4890759;29;20197;-77
2022/01/21 09:27:10;;;;;;;7.13;2.17;;;-2.20;96.30;;;;;;4887378;29;20276;-77
2022/01/21 09:29:36;;;;;;;10.43;2.30;;;-2.30;96.30;;;;;;4903858;29;20178;-77
2022/01/21 09:32:04;;;;;;;11.73;1.97;;;-2.10;96.30;;;;;;4885912;29;20213;-76
2022/01/21 09:34:29;;;;;;;9.03;2.30;;;-2.20;96.30;;;;;;4858361;29;20193;-75
2022/01/21 09:36:57;;;;;;;12.03;2.67;;;-2.10;96.30;;;;;;4870317;29;20421;-77
2022/01/21 09:39:23;;;;;;;13.57;2.57;;;-1.80;96.30;;;;;;4888401;29;20241;-77
2022/01/21 09:41:50;;;;;;;10.30;1.80;;;-1.90;96.30;;;;;;4888762;29;21184;-77
2022/01/21 09:44:18;;;;;;;9.80;2.37;;;-2.00;96.30;;;;;;4888077;29;20441;-77
2022/01/21 09:46:47;;;;;;;8.03;2.20;;;-1.90;96.30;;;;;;4893342;29;20485;-73
2022/01/21 09:51:53;;;;;;;10.73;1.97;;;-1.80;96.30;;;;;;4897943;29;20569;-76
2022/01/21 09:54:21;;;;;;;8.50;1.97;;;-1.70;96.30;;;;;;4892084;29;20421;-78
2022/01/21 09:56:47;;;;;;;13.30;2.47;;;-1.60;96.30;;;;;;4902908;29;20441;-78
2022/01/21 09:59:20;;;;;;;9.53;2.20;;;-1.50;96.30;;;;;;4867013;29;20780;-77
2022/01/21 10:01:51;;;;;;;8.97;1.87;;;-1.70;96.30;;;;;;4891142;29;20989;-78
2022/01/21 10:04:19;;;;;;;9.47;2.23;;;-1.70;96.30;;;;;;4883381;29;20457;-76
2022/01/21 10:06:46;;;;;;;6.73;1.90;;;-2.00;96.30;;;;;;4886985;29;20429;-74
2022/01/21 10:09:14;;;;;;;7.67;1.93;;;-2.20;96.30;;;;;;4897469;29;20429;-74
2022/01/21 10:11:40;;;;;;;11.00;2.47;;;-2.30;96.30;;;;;;4878500;29;20457;-74
2022/01/21 10:14:05;;;;;;;9.93;2.07;;;-2.20;96.30;;;;;;4887559;29;20429;-74
2022/01/21 10:16:31;;;;;;;6.03;1.80;;;-2.20;96.30;;;;;;4878197;29;20272;-74
2022/01/21 10:19:05;;;;;;;9.20;2.17;;;-2.30;96.30;;;;;;4862067;29;20185;-74
2022/01/21 10:21:33;;;;;;;5.77;2.33;;;-2.10;96.30;;;;;;4885891;29;20224;-75
2022/01/21 10:24:11;;;;;;;10.50;2.47;;;-2.00;96.30;;;;;;4874836;29;21208;-76
2022/01/21 10:26:49;;;;;;;16.00;2.80;;;-1.70;96.30;;;;;;4888744;29;20421;-75
2022/01/21 10:29:15;;;;;;;10.97;2.47;;;-1.90;96.30;;;;;;4878747;29;20426;-75
2022/01/21 10:31:51;;;;;;;5.03;1.50;;;-1.90;96.30;;;;;;4883614;29;20451;-75
2022/01/21 10:34:24;;;;;;;8.30;2.90;;;-1.80;96.30;;;;;;4867175;29;20193;-75
2022/01/21 10:36:55;;;;;;;14.90;2.60;;;-1.50;96.30;;;;;;4888256;29;20481;-75
2022/01/21 10:39:29;;;;;;;9.07;2.20;;;-1.60;96.30;;;;;;4882559;29;20426;-76
2022/01/21 10:41:57;;;;;;;11.27;2.10;;;-1.70;96.30;;;;;;4893363;29;20962;-75
2022/01/21 10:44:25;;;;;;;9.27;2.37;;;-1.80;96.30;;;;;;4880180;29;20483;-73
2022/01/21 10:47:10;;;;;;;4.87;2.30;;;-1.80;96.30;;;;;;4896561;29;20417;-73
2022/01/21 10:49:39;;;;;;;7.90;2.20;;;-1.70;96.30;;;;;;4896985;29;20484;-73
2022/01/21 10:52:06;;;;;;;4.90;2.60;;;-1.70;96.30;;;;;;4896944;29;20501;-73
2022/01/21 10:54:32;;;;;;;5.70;1.67;;;-1.70;96.30;;;;;;4896810;29;21023;-75
2022/01/21 10:57:08;;;;;;;5.60;1.60;;;-1.70;96.30;;;;;;4897033;29;21041;-73
2022/01/21 10:59:58;;;;;;;3.77;1.53;;;-1.60;96.30;;;;;;4896903;29;20183;-73
2022/01/21 11:02:42;;;;;;;8.43;2.40;;;-1.60;96.30;;;;;;4896694;29;20438;-73
2022/01/21 11:05:16;;;;;;;8.10;2.47;;;-1.40;96.30;;;;;;4895892;29;20398;-74
2022/01/21 11:07:55;;;;;;;14.20;3.90;;;-1.30;96.30;;;;;;4896932;29;20782;-73
2022/01/21 11:10:36;;;;;;;9.40;2.07;;;-1.20;96.30;;;;;;4902276;29;20445;-75
2022/01/21 11:13:22;;;;;;;4.73;1.87;;;-1.20;96.30;;;;;;4885566;29;20421;-75
2022/01/21 11:15:54;;;;;;;5.60;1.80;;;-1.10;96.30;;;;;;4902527;29;20432;-73
2022/01/21 11:18:21;;;;;;;10.60;2.00;;;-0.90;96.30;;;;;;4886240;29;20488;-73
2022/01/21 11:36:18;;;;;;;3.63;1.40;;;-1.40;96.30;;;;;;5510575;23;1038919;-75
2022/01/21 11:38:45;;;;;;;10.17;2.00;;;-1.50;96.30;;;;;;4921404;29;20191;-75
2022/01/21 11:41:13;;;;;;;5.63;1.90;;;-1.50;96.30;;;;;;4921551;29;20571;-75
2022/01/21 11:43:45;;;;;;;5.40;1.80;;;-1.50;96.30;;;;;;4921567;29;20420;-75
2022/01/21 11:48:55;;;;;;;5.13;2.03;;;-1.40;96.30;;;;;;4921660;29;20401;-76
2022/01/21 11:51:30;;;;;;;2.70;1.00;;;-1.40;96.30;;;;;;4921375;29;20515;-76
2022/01/21 11:53:58;;;;;;;8.33;2.00;;;-1.50;96.30;;;;;;4921356;29;20408;-75
2022/01/21 11:56:32;;;;;;;4.03;2.03;;;-1.70;96.30;;;;;;4904185;29;20544;-75
2022/01/21 11:59:32;;;;;;;1.50;1.00;;;-2.20;96.30;;;;;;4921439;29;20472;-73
2022/01/21 12:01:59;;;;;;;4.20;1.73;;;-2.40;96.30;;;;;;4904503;29;20558;-73
2022/01/21 12:04:31;;;;;;;4.63;1.70;;;-2.40;96.30;;;;;;4921473;29;20463;-73
2022/01/21 12:06:58;;;;;;;6.27;1.87;;;-2.30;96.30;;;;;;4921470;29;20416;-76
2022/01/21 12:09:55;;;;;;;3.97;1.53;;;-2.20;96.30;;;;;;4921454;29;20423;-73
2022/01/21 12:12:23;;;;;;;4.97;1.77;;;-2.10;96.30;;;;;;4921405;29;20442;-74
2022/01/21 12:14:54;;;;;;;3.20;1.60;;;-2.30;96.30;;;;;;4921367;29;20408;-74
2022/01/21 12:17:36;;;;;;;7.07;1.90;;;-2.20;96.30;;;;;;4920768;29;20420;-77
2022/01/21 12:20:06;;;;;;;5.03;2.20;;;-2.10;96.30;;;;;;4919905;29;20459;-74
2022/01/21 12:22:32;;;;;;;13.83;2.57;;;-2.00;96.30;;;;;;4918663;29;20448;-73
2022/01/21 12:25:10;;;;;;;8.70;2.53;;;-1.90;96.30;;;;;;4917199;29;20467;-74
2022/01/21 12:27:38;;;;;;;9.10;2.03;;;-1.50;96.30;;;;;;4914075;29;20192;-74
2022/01/21 12:30:27;;;;;;;5.33;2.03;;;-1.60;96.30;;;;;;4918353;29;20790;-77
2022/01/21 12:32:55;;;;;;;8.37;2.77;;;-0.90;96.30;;;;;;4917395;29;20762;-77
2022/01/21 12:35:21;;;;;;;4.40;1.70;;;-0.60;96.30;;;;;;4918085;29;20481;-75
2022/01/21 12:39:06;;;;;;;4.20;1.63;;;-0.90;96.30;;;;;;4918438;29;20445;-75
2022/01/21 12:41:00;;;;;;;5.20;1.90;;;-0.90;96.30;;;;;;4917859;29;20499;-76
2022/01/21 12:43:53;;;;;;;7.33;1.37;;;-0.10;96.30;;;;;;4918353;29;20503;-75
2022/01/21 12:46:44;;;;;;;11.17;2.50;;;0.40;96.30;;;;;;4918080;29;20409;-75
2022/01/21 12:49:36;;;;;;;6.13;2.20;;;1.10;96.30;;;;;;4899517;29;20819;-77
2022/01/21 12:57:24;;;;;;;6.77;2.07;;;1.00;96.30;;;;;;4899035;29;20428;-75
2022/01/21 12:59:55;;;;;;;5.20;1.10;;;0.30;96.30;;;;;;4899199;29;20418;-75
2022/01/21 13:02:25;;;;;;;5.63;1.80;;;-0.10;96.30;;;;;;4882208;29;20476;-76
2022/01/21 13:05:01;;;;;;;6.93;1.53;;;-0.30;96.30;;;;;;4881925;29;20433;-75
2022/01/21 13:07:49;;;;;;;4.63;1.80;;;-0.50;96.30;;;;;;4899052;29;20436;-77
2022/01/21 13:10:27;;;;;;;4.20;1.60;;;-0.10;96.30;;;;;;4898927;29;20416;-74
2022/01/21 13:15:42;;;;;;;4.23;1.37;;;0.30;96.30;;;;;;4899005;29;20457;-77
2022/01/21 13:18:10;;;;;;;3.63;1.23;;;0.10;96.30;;;;;;4898785;29;20417;-75
2022/01/21 13:20:38;;;;;;;3.40;1.50;;;0.00;96.30;;;;;;4898548;29;20468;-74
2022/01/21 13:23:05;;;;;;;5.53;1.77;;;-0.30;96.30;;;;;;4898998;29;20893;-75
2022/01/21 13:25:32;;;;;;;5.97;1.70;;;-0.60;96.30;;;;;;4898464;29;20453;-75
2022/01/21 13:28:03;;;;;;;6.10;1.17;;;-0.50;96.30;;;;;;4898681;29;20424;-75
2022/01/21 13:30:35;;;;;;;6.60;2.13;;;-0.70;96.30;;;;;;4898480;29;20410;-75
2022/01/21 13:33:05;;;;;;;4.27;1.27;;;-0.90;96.30;;;;;;4881519;29;20434;-74
2022/01/21 13:35:31;;;;;;;8.27;1.40;;;-1.20;96.30;;;;;;4905750;29;20420;-75
2022/01/21 13:38:05;;;;;;;3.47;1.60;;;-1.10;96.30;;;;;;4917351;29;20773;-75
2022/01/21 13:40:35;;;;;;;5.47;1.47;;;-1.40;96.30;;;;;;4916956;29;20467;-74
2022/01/21 13:43:06;;;;;;;6.57;1.70;;;-1.50;96.30;;;;;;4917238;29;20551;-74
2022/01/21 13:45:31;;;;;;;6.47;1.77;;;-1.60;96.30;;;;;;4917053;29;20449;-76
2022/01/21 13:48:03;;;;;;;3.40;1.03;;;-1.60;96.30;;;;;;4917157;29;20821;-75
2022/01/21 13:50:30;;;;;;;6.50;0.97;;;-1.60;96.30;;;;;;4900206;29;20198;-75
2022/01/21 13:52:59;;;;;;;3.20;1.30;;;-1.70;96.30;;;;;;4915808;29;20425;-75
2022/01/21 13:55:44;;;;;;;3.57;1.20;;;-1.80;96.30;;;;;;4916749;29;20507;-76
2022/01/21 13:58:21;;;;;;;2.87;1.40;;;-1.80;96.30;;;;;;4917125;29;20412;-75
2022/01/21 14:00:59;;;;;;;4.33;1.33;;;-1.90;96.30;;;;;;4915511;29;20980;-77
2022/01/21 14:03:30;;;;;;;6.43;1.97;;;-1.90;96.30;;;;;;4899872;29;20503;-77
2022/01/21 14:06:03;;;;;;;3.93;1.67;;;-1.90;96.30;;;;;;4899676;29;20992;-77
2022/01/21 14:08:33;;;;;;;4.80;1.30;;;-1.90;96.30;;;;;;4916873;29;20488;-76
2022/01/21 14:11:26;;;;;;;9.10;1.43;;;-1.70;96.30;;;;;;4899628;29;20456;-78
2022/01/21 14:14:00;;;;;;;6.43;1.50;;;-1.60;96.30;;;;;;4916697;29;20408;-76
2022/01/21 14:16:36;;;;;;;12.67;1.80;;;-1.60;96.30;;;;;;4916387;29;20452;-75
2022/01/21 14:19:04;;;;;;;2.67;1.20;;;-1.60;96.30;;;;;;4916590;29;20765;-76
2022/01/21 14:21:32;;;;;;;2.80;1.00;;;-1.60;96.30;;;;;;4916445;29;20834;-77
2022/01/21 14:24:09;;;;;;;10.87;1.67;;;-1.70;96.30;;;;;;4899462;29;20432;-77
2022/01/21 14:26:53;;;;;;;3.90;1.30;;;-1.80;96.30;;;;;;4916215;29;20455;-77
2022/01/21 14:29:37;;;;;;;9.33;1.60;;;-2.00;96.30;;;;;;4900175;29;20463;-76
2022/01/21 14:32:18;;;;;;;4.77;1.50;;;-2.00;96.30;;;;;;4916917;29;20451;-74
2022/01/21 14:34:44;;;;;;;6.27;1.33;;;-2.00;96.30;;;;;;4916791;29;20741;-78
2022/01/21 14:37:12;;;;;;;5.67;1.33;;;-2.20;96.30;;;;;;4916459;29;20439;-75
2022/01/21 14:39:49;;;;;;;11.93;1.37;;;-2.20;96.30;;;;;;4916262;29;20428;-76
2022/01/21 14:42:27;;;;;;;4.30;1.23;;;-2.20;96.30;;;;;;4898941;29;21018;-74
2022/01/21 14:44:55;;;;;;;14.50;2.30;;;-2.30;96.30;;;;;;4898735;29;20927;-74
2022/01/21 14:47:25;;;;;;;3.10;1.30;;;-2.40;96.30;;;;;;4916121;29;21016;-74
2022/01/21 14:50:05;;;;;;;4.10;1.47;;;-2.50;96.30;;;;;;4916370;29;20961;-74
2022/01/21 14:52:49;;;;;;;6.73;1.47;;;-2.50;96.30;;;;;;4899197;29;20572;-74
2022/01/21 14:55:38;;;;;;;7.00;1.37;;;-2.40;96.30;;;;;;4915854;29;20411;-74
2022/01/21 14:58:14;;;;;;;3.10;1.33;;;-2.60;96.30;;;;;;4916138;29;20424;-74
2022/01/21 15:00:45;;;;;;;4.10;1.07;;;-2.60;96.30;;;;;;4898612;29;20471;-74
2022/01/21 15:03:29;;;;;;;13.33;1.53;;;-2.50;96.30;;;;;;4916164;29;20407;-74
2022/01/21 15:06:15;;;;;;;9.37;2.43;;;-2.50;96.30;;;;;;4915978;29;20400;-74
2022/01/21 15:08:56;;;;;;;4.70;1.43;;;-2.50;96.30;;;;;;4916036;29;20408;-74
2022/01/21 15:14:27;;;;;;;8.37;1.70;;;-2.70;96.30;;;;;;4916269;29;20407;-76
2022/01/21 15:17:16;;;;;;;6.70;1.33;;;-2.80;96.30;;;;;;4899002;29;20958;-75
2022/01/21 15:19:45;;;;;;;6.10;1.30;;;-2.70;96.30;;;;;;4915889;29;20393;-74
2022/01/21 15:22:20;;;;;;;4.03;1.50;;;-2.70;96.30;;;;;;4898834;29;20572;-75
2022/01/21 15:24:47;;;;;;;2.23;1.20;;;-2.70;96.30;;;;;;4898713;29;20507;-74
2022/01/21 15:27:14;;;;;;;5.30;1.43;;;-2.80;96.30;;;;;;4915892;29;20442;-73
2022/01/21 15:29:41;;;;;;;3.93;1.40;;;-2.80;96.30;;;;;;4915832;29;20416;-73
2022/01/21 15:32:08;;;;;;;3.43;1.53;;;-2.80;96.30;;;;;;4914776;29;20851;-73
2022/01/21 15:34:34;;;;;;;2.60;1.40;;;-2.80;96.30;;;;;;4914976;29;20416;-75
2022/01/21 15:37:00;;;;;;;3.70;1.13;;;-2.90;96.30;;;;;;4915585;29;20519;-73
2022/01/21 15:39:26;;;;;;;2.90;1.47;;;-2.80;96.30;;;;;;4915698;29;20459;-73
2022/01/21 15:41:52;;;;;;;5.40;1.57;;;-2.90;96.30;;;;;;4915520;29;20219;-74
2022/01/21 15:44:18;;;;;;;3.93;1.20;;;-2.90;96.30;;;;;;4914467;29;20515;-75
2022/01/21 15:46:43;;;;;;;4.87;1.50;;;-3.00;96.30;;;;;;4898517;29;20187;-76
2022/01/21 15:49:12;;;;;;;7.10;1.33;;;-3.10;96.30;;;;;;4915557;29;20412;-73
2022/01/21 15:51:38;;;;;;;4.30;1.43;;;-3.10;96.30;;;;;;4915536;29;20196;-73
2022/01/21 15:54:04;;;;;;;4.00;1.57;;;-3.10;96.30;;;;;;4915588;29;20428;-73
2022/01/21 15:56:30;;;;;;;5.63;1.40;;;-3.10;96.30;;;;;;4901618;29;20408;-74
2022/01/21 15:58:55;;;;;;;4.00;1.70;;;-3.00;96.30;;;;;;4902389;29;20431;-74
2022/01/21 16:01:21;;;;;;;17.33;3.07;;;-3.00;96.30;;;;;;4900040;29;20235;-75
2022/01/21 16:03:46;;;;;;;8.20;2.00;;;-3.10;96.30;;;;;;4899778;29;20180;-75
2022/01/21 16:06:12;;;;;;;7.13;2.57;;;-3.10;96.30;;;;;;4899621;29;20209;-73
2022/01/21 16:08:39;;;;;;;7.57;1.90;;;-3.10;96.30;;;;;;4900044;29;20181;-72
2022/01/21 16:11:05;;;;;;;8.03;2.17;;;-3.10;96.30;;;;;;4900108;29;20806;-74
2022/01/21 16:13:31;;;;;;;6.73;1.67;;;-3.20;96.30;;;;;;4900087;29;20448;-74
2022/01/21 16:15:58;;;;;;;4.83;2.27;;;-3.40;96.30;;;;;;4899490;29;20472;-73
2022/01/21 16:18:26;;;;;;;4.17;1.70;;;-3.50;96.30;;;;;;4899853;29;20504;-77
2022/01/21 16:20:54;;;;;;;4.67;2.10;;;-3.50;96.30;;;;;;4899722;29;20467;-77
2022/01/21 16:23:20;;;;;;;3.13;1.97;;;-3.60;96.30;;;;;;4899835;29;20780;-75
2022/01/21 16:25:46;;;;;;;8.20;2.10;;;-3.60;96.30;;;;;;4899494;29;20897;-76
2022/01/21 16:28:12;;;;;;;3.53;1.60;;;-3.60;96.30;;;;;;4898553;29;20184;-75
2022/01/21 16:30:38;;;;;;;5.60;2.50;;;-3.50;96.30;;;;;;4899577;29;20196;-76
2022/01/21 16:33:03;;;;;;;15.70;8.27;;;-3.40;96.30;;;;;;4898542;29;20420;-75
2022/01/21 16:35:29;;;;;;;6.40;2.20;;;-3.30;96.30;;;;;;4906659;29;20433;-75
2022/01/21 16:37:54;;;;;;;8.10;2.10;;;-3.30;96.30;;;;;;4901196;29;20232;-77
2022/01/21 16:40:20;;;;;;;8.03;4.40;;;-3.40;96.30;;;;;;4918201;29;20184;-77
2022/01/21 16:42:46;;;;;;;4.90;2.33;;;-3.30;96.30;;;;;;4918459;29;20235;-78
2022/01/21 16:45:14;;;;;;;7.17;3.60;;;-3.30;96.30;;;;;;4901176;29;20279;-78
2022/01/21 16:47:44;;;;;;;8.17;3.87;;;-3.50;96.30;;;;;;4901570;29;20184;-77
2022/01/21 16:50:11;;;;;;;7.73;2.83;;;-3.40;96.30;;;;;;4918113;29;20484;-77
2022/01/21 16:52:37;;;;;;;4.07;2.60;;;-3.50;96.30;;;;;;4917927;29;20436;-76
2022/01/21 16:55:05;;;;;;;7.97;2.97;;;-3.60;96.30;;;;;;4917953;29;20448;-77
2022/01/21 16:57:30;;;;;;;5.63;2.17;;;-3.70;96.30;;;;;;4917825;29;20795;-76
2022/01/21 16:59:58;;;;;;;5.70;2.00;;;-3.70;96.30;;;;;;4917846;29;20424;-76
2022/01/21 17:02:25;;;;;;;9.77;3.00;;;-3.70;96.30;;;;;;4910873;29;20213;-77
2022/01/21 17:04:51;;;;;;;6.40;2.40;;;-3.70;96.30;;;;;;4915625;29;20523;-76
2022/01/21 17:07:17;;;;;;;4.67;2.47;;;-3.70;96.30;;;;;;4916892;29;20495;-76
2022/01/21 17:09:44;;;;;;;5.90;2.40;;;-3.80;96.30;;;;;;4900815;29;20229;-76
2022/01/21 17:12:10;;;;;;;11.37;2.17;;;-3.90;96.30;;;;;;4917786;29;20815;-76
2022/01/21 17:14:36;;;;;;;7.60;2.10;;;-4.00;96.30;;;;;;4897157;29;20996;-74
2022/01/21 17:17:01;;;;;;;10.47;3.37;;;-4.00;96.30;;;;;;4917352;29;20670;-75
2022/01/21 17:19:27;;;;;;;6.47;3.20;;;-3.90;96.30;;;;;;4917942;29;20512;-74
2022/01/21 17:21:53;;;;;;;9.30;3.53;;;-3.90;96.30;;;;;;4900390;29;20311;-74
2022/01/21 17:24:20;;;;;;;2.40;2.13;;;-3.80;96.30;;;;;;4916432;29;20218;-75
2022/01/21 17:26:47;;;;;;;11.03;3.07;;;-3.80;96.30;;;;;;4916573;29;20448;-74
2022/01/21 17:29:13;;;;;;;7.90;2.90;;;-3.90;96.30;;;;;;4899660;29;20951;-74
2022/01/21 17:31:38;;;;;;;5.37;2.27;;;-3.80;96.30;;;;;;4916607;29;20598;-74
2022/01/21 17:34:05;;;;;;;12.90;2.70;;;-3.70;96.30;;;;;;4916873;29;20515;-74
2022/01/21 17:36:31;;;;;;;7.77;2.47;;;-3.60;96.30;;;;;;4915419;29;20294;-74
2022/01/21 17:38:56;;;;;;;8.70;2.83;;;-3.50;96.30;;;;;;4899967;29;20553;-73
2022/01/21 17:41:23;;;;;;;3.83;2.87;;;-3.50;96.30;;;;;;4916940;29;20235;-73
2022/01/21 17:43:54;;;;;;;7.70;2.80;;;-3.60;96.30;;;;;;4917263;29;20263;-74
2022/01/21 17:46:20;;;;;;;4.70;2.77;;;-3.60;96.30;;;;;;4917007;29;20397;-74
2022/01/21 17:48:47;;;;;;;8.63;2.60;;;-3.60;96.30;;;;;;4917058;29;20936;-74
2022/01/21 18:20:36;;;;;;;7.50;2.77;;;-2.90;96.30;;;;;;5921841;23;20557;-73
2022/01/21 18:23:01;;;;;;;4.50;2.47;;;-2.90;96.30;;;;;;4897196;29;20516;-74
2022/01/21 18:25:27;;;;;;;4.50;2.13;;;-2.80;96.30;;;;;;4895998;29;20173;-76
2022/01/21 18:27:52;;;;;;;3.40;2.47;;;-2.80;96.30;;;;;;4896137;29;20173;-76
2022/01/21 18:30:21;;;;;;;6.93;2.77;;;-2.70;96.30;;;;;;4896247;29;20192;-73
2022/01/21 18:32:47;;;;;;;8.60;2.77;;;-2.70;96.30;;;;;;4880298;29;20585;-77
2022/01/21 18:35:13;;;;;;;9.50;3.30;;;-2.70;96.30;;;;;;4896897;29;20833;-73
2022/01/21 18:37:38;;;;;;;7.37;2.80;;;-2.60;96.30;;;;;;4897327;29;20916;-73
2022/01/21 18:40:05;;;;;;;4.40;2.27;;;-2.50;96.30;;;;;;4879137;29;20437;-76
2022/01/21 18:42:33;;;;;;;5.80;2.30;;;-2.60;96.30;;;;;;4878358;29;20217;-76
2022/01/21 18:45:10;;;;;;;8.33;3.33;;;-2.50;96.30;;;;;;4861063;29;20782;-76
2022/01/21 18:47:42;;;;;;;6.63;2.97;;;-2.50;96.30;;;;;;4877162;29;20433;-76
2022/01/21 18:50:16;;;;;;;8.23;2.90;;;-2.40;96.30;;;;;;4861949;29;20445;-75
2022/01/21 18:52:44;;;;;;;3.87;1.90;;;-2.40;96.30;;;;;;4878383;29;20418;-75
2022/01/21 18:55:11;;;;;;;9.20;2.83;;;-2.40;96.30;;;;;;4877655;29;20421;-76
2022/01/21 18:57:39;;;;;;;11.20;2.93;;;-2.40;96.30;;;;;;4878361;29;20497;-75
2022/01/21 19:00:08;;;;;;;4.73;2.90;;;-2.30;96.30;;;;;;4878175;29;20423;-78
2022/01/21 19:02:37;;;;;;;6.63;2.50;;;-2.30;96.30;;;;;;4861240;29;20517;-75
2022/01/21 19:05:07;;;;;;;5.97;2.47;;;-2.30;96.30;;;;;;4878794;29;20414;-75
2022/01/21 19:07:33;;;;;;;4.87;2.90;;;-2.30;96.30;;;;;;4894068;29;20425;-77